sensor_id;sensor_type;location;lat;lon;timestamp;P1;durP1;ratioP1;P2;durP2;ratioP2
72325;SDS011;60278;47.980;18.780;2022-10-17T00:02:06;14.68;;;8.27;;
72325;SDS011;60278;47.980;18.780;2022-10-17T00:05:38;14.15;;;8.43;;
72325;SDS011;60278;47.980;18.780;2022-10-17T00:09:13;15.10;;;8.23;;
72325;SDS011;60278;47.980;18.780;2022-10-17T00:12:44;13.90;;;8.57;;
72325;SDS011;60278;47.980;18.780;2022-10-17T00:16:21;16.15;;;9.32;;
72325;SDS011;60278;47.980;18.780;2022-10-17T00:20:03;18.20;;;9.02;;
72325;SDS011;60278;47.980;18.780;2022-10-17T00:23:35;16.90;;;9.30;;
72325;SDS011;60278;47.980;18.780;2022-10-17T00:27:06;16.88;;;9.00;;
72325;SDS011;60278;47.980;18.780;2022-10-17T00:30:37;14.43;;;8.57;;
72325;SDS011;60278;47.980;18.780;2022-10-17T00:34:08;15.93;;;9.10;;
72325;SDS011;60278;47.980;18.780;2022-10-17T00:37:39;16.45;;;9.80;;
72325;SDS011;60278;47.980;18.780;2022-10-17T00:41:13;15.55;;;9.65;;
72325;SDS011;60278;47.980;18.780;2022-10-17T00:48:18;13.25;;;8.48;;
72325;SDS011;60278;47.980;18.780;2022-10-17T00:51:52;13.80;;;8.40;;
72325;SDS011;60278;47.980;18.780;2022-10-17T00:55:26;13.85;;;8.50;;
72325;SDS011;60278;47.980;18.780;2022-10-17T00:59:00;16.23;;;8.27;;
72325;SDS011;60278;47.980;18.780;2022-10-17T01:02:32;12.07;;;8.05;;
72325;SDS011;60278;47.980;18.780;2022-10-17T01:06:03;11.40;;;7.43;;
72325;SDS011;60278;47.980;18.780;2022-10-17T01:09:34;14.40;;;8.07;;
72325;SDS011;60278;47.980;18.780;2022-10-17T01:13:12;15.10;;;8.32;;
72325;SDS011;60278;47.980;18.780;2022-10-17T01:32:30;15.13;;;8.10;;
72325;SDS011;60278;47.980;18.780;2022-10-17T01:36:06;14.47;;;8.90;;
72325;SDS011;60278;47.980;18.780;2022-10-17T01:39:49;18.48;;;8.82;;
72325;SDS011;60278;47.980;18.780;2022-10-17T01:43:24;17.40;;;9.32;;
72325;SDS011;60278;47.980;18.780;2022-10-17T01:47:07;19.83;;;10.07;;
72325;SDS011;60278;47.980;18.780;2022-10-17T01:50:44;16.92;;;9.30;;
72325;SDS011;60278;47.980;18.780;2022-10-17T01:54:22;19.00;;;9.43;;
72325;SDS011;60278;47.980;18.780;2022-10-17T01:58:04;19.27;;;9.80;;
72325;SDS011;60278;47.980;18.780;2022-10-17T02:01:36;19.38;;;8.55;;
72325;SDS011;60278;47.980;18.780;2022-10-17T02:05:10;14.48;;;8.50;;
72325;SDS011;60278;47.980;18.780;2022-10-17T02:08:43;14.40;;;9.18;;
72325;SDS011;60278;47.980;18.780;2022-10-17T02:20:16;17.48;;;8.68;;
72325;SDS011;60278;47.980;18.780;2022-10-17T02:31:14;16.80;;;9.65;;
72325;SDS011;60278;47.980;18.780;2022-10-17T02:34:50;16.33;;;8.23;;
72325;SDS011;60278;47.980;18.780;2022-10-17T02:38:24;15.75;;;8.32;;
72325;SDS011;60278;47.980;18.780;2022-10-17T02:41:57;14.52;;;8.05;;
72325;SDS011;60278;47.980;18.780;2022-10-17T02:45:32;14.88;;;7.95;;
72325;SDS011;60278;47.980;18.780;2022-10-17T02:49:15;14.17;;;8.53;;
72325;SDS011;60278;47.980;18.780;2022-10-17T02:52:54;17.17;;;9.77;;
72325;SDS011;60278;47.980;18.780;2022-10-17T02:56:41;15.68;;;8.43;;
72325;SDS011;60278;47.980;18.780;2022-10-17T03:00:18;19.27;;;9.20;;
72325;SDS011;60278;47.980;18.780;2022-10-17T03:04:03;13.95;;;7.78;;
72325;SDS011;60278;47.980;18.780;2022-10-17T03:07:35;12.02;;;8.27;;
72325;SDS011;60278;47.980;18.780;2022-10-17T03:11:06;14.67;;;8.60;;
72325;SDS011;60278;47.980;18.780;2022-10-17T03:14:37;16.52;;;8.45;;
72325;SDS011;60278;47.980;18.780;2022-10-17T03:18:08;13.98;;;9.02;;
72325;SDS011;60278;47.980;18.780;2022-10-17T03:21:39;14.00;;;9.55;;
72325;SDS011;60278;47.980;18.780;2022-10-17T03:25:11;18.27;;;9.93;;
72325;SDS011;60278;47.980;18.780;2022-10-17T03:28:42;16.90;;;9.90;;
72325;SDS011;60278;47.980;18.780;2022-10-17T03:32:14;19.60;;;10.88;;
72325;SDS011;60278;47.980;18.780;2022-10-17T03:35:45;22.50;;;9.67;;
72325;SDS011;60278;47.980;18.780;2022-10-17T03:39:17;18.27;;;9.02;;
72325;SDS011;60278;47.980;18.780;2022-10-17T03:42:48;14.23;;;8.35;;
72325;SDS011;60278;47.980;18.780;2022-10-17T03:46:20;16.37;;;9.33;;
72325;SDS011;60278;47.980;18.780;2022-10-17T03:49:51;11.73;;;8.27;;
72325;SDS011;60278;47.980;18.780;2022-10-17T03:53:24;14.65;;;8.80;;
72325;SDS011;60278;47.980;18.780;2022-10-17T03:56:55;19.55;;;8.48;;
72325;SDS011;60278;47.980;18.780;2022-10-17T04:00:27;16.87;;;7.60;;
72325;SDS011;60278;47.980;18.780;2022-10-17T04:04:01;15.27;;;8.52;;
72325;SDS011;60278;47.980;18.780;2022-10-17T04:07:35;13.70;;;7.85;;
72325;SDS011;60278;47.980;18.780;2022-10-17T04:11:10;14.47;;;7.70;;
72325;SDS011;60278;47.980;18.780;2022-10-17T04:14:46;13.32;;;8.00;;
72325;SDS011;60278;47.980;18.780;2022-10-17T04:18:18;14.50;;;8.38;;
72325;SDS011;60278;47.980;18.780;2022-10-17T04:21:49;14.33;;;8.47;;
72325;SDS011;60278;47.980;18.780;2022-10-17T04:25:21;23.58;;;12.70;;
72325;SDS011;60278;47.980;18.780;2022-10-17T04:28:52;15.82;;;9.70;;
72325;SDS011;60278;47.980;18.780;2022-10-17T04:32:24;15.93;;;8.70;;
72325;SDS011;60278;47.980;18.780;2022-10-17T04:36:10;16.10;;;7.27;;
72325;SDS011;60278;47.980;18.780;2022-10-17T04:39:43;14.88;;;8.50;;
72325;SDS011;60278;47.980;18.780;2022-10-17T04:43:15;13.77;;;8.30;;
72325;SDS011;60278;47.980;18.780;2022-10-17T04:46:48;16.53;;;8.77;;
72325;SDS011;60278;47.980;18.780;2022-10-17T04:50:19;17.05;;;9.10;;
72325;SDS011;60278;47.980;18.780;2022-10-17T04:54:08;23.52;;;9.38;;
72325;SDS011;60278;47.980;18.780;2022-10-17T04:57:41;15.93;;;9.83;;
72325;SDS011;60278;47.980;18.780;2022-10-17T05:01:24;14.55;;;8.15;;
72325;SDS011;60278;47.980;18.780;2022-10-17T05:04:57;17.33;;;8.73;;
72325;SDS011;60278;47.980;18.780;2022-10-17T05:08:28;13.18;;;8.85;;
72325;SDS011;60278;47.980;18.780;2022-10-17T05:11:59;14.10;;;8.47;;
72325;SDS011;60278;47.980;18.780;2022-10-17T05:15:31;14.65;;;9.13;;
72325;SDS011;60278;47.980;18.780;2022-10-17T05:19:02;13.00;;;8.15;;
72325;SDS011;60278;47.980;18.780;2022-10-17T05:22:39;16.03;;;9.20;;
72325;SDS011;60278;47.980;18.780;2022-10-17T05:26:11;17.48;;;9.60;;
72325;SDS011;60278;47.980;18.780;2022-10-17T05:29:42;13.77;;;8.45;;
72325;SDS011;60278;47.980;18.780;2022-10-17T05:33:21;13.73;;;7.83;;
72325;SDS011;60278;47.980;18.780;2022-10-17T05:36:53;15.55;;;8.23;;
72325;SDS011;60278;47.980;18.780;2022-10-17T05:40:26;15.13;;;8.82;;
72325;SDS011;60278;47.980;18.780;2022-10-17T05:43:59;36.47;;;9.75;;
72325;SDS011;60278;47.980;18.780;2022-10-17T05:47:41;19.87;;;9.40;;
72325;SDS011;60278;47.980;18.780;2022-10-17T05:51:13;14.52;;;8.07;;
72325;SDS011;60278;47.980;18.780;2022-10-17T05:54:49;14.15;;;7.80;;
72325;SDS011;60278;47.980;18.780;2022-10-17T05:58:21;11.47;;;7.80;;
72325;SDS011;60278;47.980;18.780;2022-10-17T06:01:53;14.65;;;8.18;;
72325;SDS011;60278;47.980;18.780;2022-10-17T06:05:25;13.48;;;8.15;;
72325;SDS011;60278;47.980;18.780;2022-10-17T06:08:59;17.00;;;7.97;;
72325;SDS011;60278;47.980;18.780;2022-10-17T06:12:36;15.50;;;7.70;;
72325;SDS011;60278;47.980;18.780;2022-10-17T06:16:07;13.68;;;7.63;;
72325;SDS011;60278;47.980;18.780;2022-10-17T06:19:39;18.65;;;9.10;;
72325;SDS011;60278;47.980;18.780;2022-10-17T06:23:11;14.40;;;8.47;;
72325;SDS011;60278;47.980;18.780;2022-10-17T06:27:07;13.93;;;8.15;;
72325;SDS011;60278;47.980;18.780;2022-10-17T06:30:40;14.82;;;7.13;;
72325;SDS011;60278;47.980;18.780;2022-10-17T06:34:11;11.40;;;7.13;;
72325;SDS011;60278;47.980;18.780;2022-10-17T06:37:44;11.93;;;8.10;;
72325;SDS011;60278;47.980;18.780;2022-10-17T06:41:16;12.77;;;7.13;;
72325;SDS011;60278;47.980;18.780;2022-10-17T06:44:49;12.48;;;7.93;;
72325;SDS011;60278;47.980;18.780;2022-10-17T06:48:38;12.87;;;7.43;;
72325;SDS011;60278;47.980;18.780;2022-10-17T06:52:28;12.55;;;7.03;;
72325;SDS011;60278;47.980;18.780;2022-10-17T06:56:19;14.35;;;7.72;;
72325;SDS011;60278;47.980;18.780;2022-10-17T07:00:10;12.37;;;6.83;;
72325;SDS011;60278;47.980;18.780;2022-10-17T07:03:47;10.57;;;6.63;;
72325;SDS011;60278;47.980;18.780;2022-10-17T07:07:19;16.90;;;6.75;;
72325;SDS011;60278;47.980;18.780;2022-10-17T07:10:51;10.67;;;7.07;;
72325;SDS011;60278;47.980;18.780;2022-10-17T07:14:24;11.23;;;7.32;;
72325;SDS011;60278;47.980;18.780;2022-10-17T07:18:01;11.52;;;7.32;;
72325;SDS011;60278;47.980;18.780;2022-10-17T07:21:33;13.32;;;7.05;;
72325;SDS011;60278;47.980;18.780;2022-10-17T07:25:04;13.23;;;6.63;;
72325;SDS011;60278;47.980;18.780;2022-10-17T07:29:02;12.70;;;6.30;;
72325;SDS011;60278;47.980;18.780;2022-10-17T07:32:38;13.65;;;7.38;;
72325;SDS011;60278;47.980;18.780;2022-10-17T07:36:12;14.40;;;6.27;;
72325;SDS011;60278;47.980;18.780;2022-10-17T07:39:43;11.07;;;6.30;;
72325;SDS011;60278;47.980;18.780;2022-10-17T07:43:15;9.73;;;6.03;;
72325;SDS011;60278;47.980;18.780;2022-10-17T07:46:46;9.30;;;6.70;;
72325;SDS011;60278;47.980;18.780;2022-10-17T07:50:18;10.07;;;6.30;;
72325;SDS011;60278;47.980;18.780;2022-10-17T07:53:49;15.20;;;6.63;;
72325;SDS011;60278;47.980;18.780;2022-10-17T07:57:20;9.93;;;5.97;;
72325;SDS011;60278;47.980;18.780;2022-10-17T08:00:51;12.90;;;6.40;;
72325;SDS011;60278;47.980;18.780;2022-10-17T08:04:22;10.45;;;6.40;;
72325;SDS011;60278;47.980;18.780;2022-10-17T08:07:53;13.32;;;7.20;;
72325;SDS011;60278;47.980;18.780;2022-10-17T08:11:24;10.20;;;5.87;;
72325;SDS011;60278;47.980;18.780;2022-10-17T08:14:56;11.52;;;6.50;;
72325;SDS011;60278;47.980;18.780;2022-10-17T08:18:27;10.38;;;6.15;;
72325;SDS011;60278;47.980;18.780;2022-10-17T08:21:58;11.73;;;6.17;;
72325;SDS011;60278;47.980;18.780;2022-10-17T08:25:30;10.35;;;6.57;;
72325;SDS011;60278;47.980;18.780;2022-10-17T08:29:01;11.15;;;6.15;;
72325;SDS011;60278;47.980;18.780;2022-10-17T08:32:32;10.40;;;6.30;;
72325;SDS011;60278;47.980;18.780;2022-10-17T08:36:04;11.37;;;5.53;;
72325;SDS011;60278;47.980;18.780;2022-10-17T08:39:36;9.85;;;5.82;;
72325;SDS011;60278;47.980;18.780;2022-10-17T08:43:23;13.73;;;5.50;;
72325;SDS011;60278;47.980;18.780;2022-10-17T08:47:00;10.87;;;5.87;;
72325;SDS011;60278;47.980;18.780;2022-10-17T08:54:44;10.88;;;5.57;;
72325;SDS011;60278;47.980;18.780;2022-10-17T08:58:26;9.93;;;4.87;;
72325;SDS011;60278;47.980;18.780;2022-10-17T09:02:00;10.45;;;5.10;;
72325;SDS011;60278;47.980;18.780;2022-10-17T09:05:45;12.02;;;5.72;;
72325;SDS011;60278;47.980;18.780;2022-10-17T09:09:54;22.13;;;5.60;;
72325;SDS011;60278;47.980;18.780;2022-10-17T09:21:44;8.68;;;4.43;;
72325;SDS011;60278;47.980;18.780;2022-10-17T09:25:20;9.43;;;4.63;;
72325;SDS011;60278;47.980;18.780;2022-10-17T09:28:53;11.93;;;4.97;;
72325;SDS011;60278;47.980;18.780;2022-10-17T09:32:28;7.70;;;4.40;;
72325;SDS011;60278;47.980;18.780;2022-10-17T09:35:59;8.27;;;4.73;;
72325;SDS011;60278;47.980;18.780;2022-10-17T09:39:34;8.30;;;4.75;;
72325;SDS011;60278;47.980;18.780;2022-10-17T09:43:06;7.55;;;4.85;;
72325;SDS011;60278;47.980;18.780;2022-10-17T09:46:40;7.97;;;4.47;;
72325;SDS011;60278;47.980;18.780;2022-10-17T09:50:24;7.80;;;4.33;;
72325;SDS011;60278;47.980;18.780;2022-10-17T09:54:02;6.10;;;4.15;;
72325;SDS011;60278;47.980;18.780;2022-10-17T09:57:55;6.85;;;4.32;;
72325;SDS011;60278;47.980;18.780;2022-10-17T10:01:31;11.97;;;4.70;;
72325;SDS011;60278;47.980;18.780;2022-10-17T10:05:05;7.78;;;3.97;;
72325;SDS011;60278;47.980;18.780;2022-10-17T10:08:55;11.40;;;4.70;;
72325;SDS011;60278;47.980;18.780;2022-10-17T10:12:37;11.23;;;4.33;;
72325;SDS011;60278;47.980;18.780;2022-10-17T10:16:42;12.75;;;4.78;;
72325;SDS011;60278;47.980;18.780;2022-10-17T10:27:36;11.90;;;4.53;;
72325;SDS011;60278;47.980;18.780;2022-10-17T10:31:10;9.40;;;4.22;;
72325;SDS011;60278;47.980;18.780;2022-10-17T10:34:45;6.80;;;4.32;;
72325;SDS011;60278;47.980;18.780;2022-10-17T10:38:40;10.03;;;4.07;;
72325;SDS011;60278;47.980;18.780;2022-10-17T10:45:57;8.80;;;4.10;;
72325;SDS011;60278;47.980;18.780;2022-10-17T10:49:30;7.23;;;3.90;;
72325;SDS011;60278;47.980;18.780;2022-10-17T10:56:45;6.38;;;4.32;;
72325;SDS011;60278;47.980;18.780;2022-10-17T11:00:20;9.50;;;3.30;;
72325;SDS011;60278;47.980;18.780;2022-10-17T11:07:40;8.23;;;4.70;;
72325;SDS011;60278;47.980;18.780;2022-10-17T11:15:06;6.65;;;3.42;;
72325;SDS011;60278;47.980;18.780;2022-10-17T11:18:48;7.67;;;3.70;;
72325;SDS011;60278;47.980;18.780;2022-10-17T11:22:31;6.63;;;3.95;;
72325;SDS011;60278;47.980;18.780;2022-10-17T11:26:06;4.65;;;3.00;;
72325;SDS011;60278;47.980;18.780;2022-10-17T11:29:42;5.80;;;3.37;;
72325;SDS011;60278;47.980;18.780;2022-10-17T11:33:20;7.40;;;3.63;;
72325;SDS011;60278;47.980;18.780;2022-10-17T11:37:18;6.65;;;3.30;;
72325;SDS011;60278;47.980;18.780;2022-10-17T11:40:54;7.03;;;3.50;;
72325;SDS011;60278;47.980;18.780;2022-10-17T11:44:40;8.50;;;3.40;;
72325;SDS011;60278;47.980;18.780;2022-10-17T11:48:14;6.68;;;3.10;;
72325;SDS011;60278;47.980;18.780;2022-10-17T11:51:51;6.63;;;3.13;;
72325;SDS011;60278;47.980;18.780;2022-10-17T11:55:28;5.57;;;3.08;;
72325;SDS011;60278;47.980;18.780;2022-10-17T12:07:10;5.07;;;3.03;;
72325;SDS011;60278;47.980;18.780;2022-10-17T12:10:44;9.50;;;4.20;;
72325;SDS011;60278;47.980;18.780;2022-10-17T12:18:10;7.03;;;3.47;;
72325;SDS011;60278;47.980;18.780;2022-10-17T12:21:56;5.57;;;3.20;;
72325;SDS011;60278;47.980;18.780;2022-10-17T12:25:29;9.63;;;3.00;;
72325;SDS011;60278;47.980;18.780;2022-10-17T12:29:03;6.53;;;2.93;;
72325;SDS011;60278;47.980;18.780;2022-10-17T12:32:34;6.53;;;3.33;;
72325;SDS011;60278;47.980;18.780;2022-10-17T12:39:45;5.60;;;3.20;;
72325;SDS011;60278;47.980;18.780;2022-10-17T12:51:07;5.78;;;3.30;;
72325;SDS011;60278;47.980;18.780;2022-10-17T12:58:28;5.13;;;2.88;;
72325;SDS011;60278;47.980;18.780;2022-10-17T13:02:00;5.80;;;3.45;;
72325;SDS011;60278;47.980;18.780;2022-10-17T13:05:34;5.43;;;2.70;;
72325;SDS011;60278;47.980;18.780;2022-10-17T13:09:07;6.25;;;2.92;;
72325;SDS011;60278;47.980;18.780;2022-10-17T13:12:48;9.23;;;2.90;;
72325;SDS011;60278;47.980;18.780;2022-10-17T13:16:30;6.70;;;3.33;;
72325;SDS011;60278;47.980;18.780;2022-10-17T13:20:06;5.00;;;3.10;;
72325;SDS011;60278;47.980;18.780;2022-10-17T13:23:49;8.88;;;3.15;;
72325;SDS011;60278;47.980;18.780;2022-10-17T13:27:27;6.13;;;3.45;;
72325;SDS011;60278;47.980;18.780;2022-10-17T13:31:02;8.70;;;3.47;;
72325;SDS011;60278;47.980;18.780;2022-10-17T13:34:33;5.53;;;3.30;;
72325;SDS011;60278;47.980;18.780;2022-10-17T13:38:05;14.43;;;3.67;;
72325;SDS011;60278;47.980;18.780;2022-10-17T13:41:37;8.70;;;4.03;;
72325;SDS011;60278;47.980;18.780;2022-10-17T13:45:12;21.38;;;10.73;;
72325;SDS011;60278;47.980;18.780;2022-10-17T13:48:53;8.25;;;4.85;;
72325;SDS011;60278;47.980;18.780;2022-10-17T13:52:26;6.53;;;3.50;;
72325;SDS011;60278;47.980;18.780;2022-10-17T13:59:57;15.05;;;6.82;;
72325;SDS011;60278;47.980;18.780;2022-10-17T14:03:43;17.13;;;9.50;;
72325;SDS011;60278;47.980;18.780;2022-10-17T14:07:19;13.10;;;5.40;;
72325;SDS011;60278;47.980;18.780;2022-10-17T14:10:55;9.80;;;4.03;;
72325;SDS011;60278;47.980;18.780;2022-10-17T14:14:26;11.20;;;4.15;;
72325;SDS011;60278;47.980;18.780;2022-10-17T14:17:59;9.70;;;4.47;;
72325;SDS011;60278;47.980;18.780;2022-10-17T14:21:47;8.43;;;3.60;;
72325;SDS011;60278;47.980;18.780;2022-10-17T14:25:32;7.75;;;3.55;;
72325;SDS011;60278;47.980;18.780;2022-10-17T14:29:06;6.22;;;3.28;;
72325;SDS011;60278;47.980;18.780;2022-10-17T14:32:58;7.73;;;3.70;;
72325;SDS011;60278;47.980;18.780;2022-10-17T14:36:34;10.27;;;4.72;;
72325;SDS011;60278;47.980;18.780;2022-10-17T14:40:19;7.93;;;4.40;;
72325;SDS011;60278;47.980;18.780;2022-10-17T14:43:54;7.03;;;3.90;;
72325;SDS011;60278;47.980;18.780;2022-10-17T14:47:27;7.65;;;3.80;;
72325;SDS011;60278;47.980;18.780;2022-10-17T14:51:14;7.25;;;3.90;;
72325;SDS011;60278;47.980;18.780;2022-10-17T14:54:47;16.07;;;6.87;;
72325;SDS011;60278;47.980;18.780;2022-10-17T14:58:26;14.35;;;6.32;;
72325;SDS011;60278;47.980;18.780;2022-10-17T15:01:58;20.88;;;10.18;;
72325;SDS011;60278;47.980;18.780;2022-10-17T15:05:29;19.02;;;9.43;;
72325;SDS011;60278;47.980;18.780;2022-10-17T15:09:00;18.47;;;9.50;;
72325;SDS011;60278;47.980;18.780;2022-10-17T15:12:32;11.02;;;5.43;;
72325;SDS011;60278;47.980;18.780;2022-10-17T15:16:22;21.13;;;8.15;;
72325;SDS011;60278;47.980;18.780;2022-10-17T15:19:55;8.07;;;4.33;;
72325;SDS011;60278;47.980;18.780;2022-10-17T15:23:27;9.05;;;4.20;;
72325;SDS011;60278;47.980;18.780;2022-10-17T15:26:58;6.00;;;3.63;;
72325;SDS011;60278;47.980;18.780;2022-10-17T15:30:30;12.27;;;3.60;;
72325;SDS011;60278;47.980;18.780;2022-10-17T15:34:05;7.13;;;3.75;;
72325;SDS011;60278;47.980;18.780;2022-10-17T15:37:36;10.10;;;3.80;;
72325;SDS011;60278;47.980;18.780;2022-10-17T15:41:08;7.75;;;4.22;;
72325;SDS011;60278;47.980;18.780;2022-10-17T15:44:40;6.40;;;3.90;;
72325;SDS011;60278;47.980;18.780;2022-10-17T15:48:23;7.88;;;4.18;;
72325;SDS011;60278;47.980;18.780;2022-10-17T15:51:59;7.65;;;3.55;;
72325;SDS011;60278;47.980;18.780;2022-10-17T15:55:30;7.90;;;4.33;;
72325;SDS011;60278;47.980;18.780;2022-10-17T15:59:09;14.93;;;5.70;;
72325;SDS011;60278;47.980;18.780;2022-10-17T16:02:45;12.45;;;6.25;;
72325;SDS011;60278;47.980;18.780;2022-10-17T16:06:17;33.63;;;16.83;;
72325;SDS011;60278;47.980;18.780;2022-10-17T16:09:49;34.25;;;13.98;;
72325;SDS011;60278;47.980;18.780;2022-10-17T16:13:21;32.15;;;13.75;;
72325;SDS011;60278;47.980;18.780;2022-10-17T16:16:53;24.17;;;11.75;;
72325;SDS011;60278;47.980;18.780;2022-10-17T16:20:24;24.70;;;10.83;;
72325;SDS011;60278;47.980;18.780;2022-10-17T16:23:55;25.73;;;11.57;;
72325;SDS011;60278;47.980;18.780;2022-10-17T16:27:27;31.42;;;16.48;;
72325;SDS011;60278;47.980;18.780;2022-10-17T16:30:58;25.03;;;10.07;;
72325;SDS011;60278;47.980;18.780;2022-10-17T16:34:29;30.77;;;12.77;;
72325;SDS011;60278;47.980;18.780;2022-10-17T16:38:01;23.17;;;12.65;;
72325;SDS011;60278;47.980;18.780;2022-10-17T16:41:33;22.60;;;13.00;;
72325;SDS011;60278;47.980;18.780;2022-10-17T16:45:09;14.20;;;7.68;;
72325;SDS011;60278;47.980;18.780;2022-10-17T16:48:51;17.27;;;9.05;;
72325;SDS011;60278;47.980;18.780;2022-10-17T16:52:22;18.27;;;8.55;;
72325;SDS011;60278;47.980;18.780;2022-10-17T16:56:03;27.10;;;15.50;;
72325;SDS011;60278;47.980;18.780;2022-10-17T16:59:34;34.85;;;19.33;;
72325;SDS011;60278;47.980;18.780;2022-10-17T17:03:05;40.08;;;21.98;;
72325;SDS011;60278;47.980;18.780;2022-10-17T17:06:36;36.33;;;19.70;;
72325;SDS011;60278;47.980;18.780;2022-10-17T17:10:07;38.40;;;21.40;;
72325;SDS011;60278;47.980;18.780;2022-10-17T17:13:39;31.17;;;17.38;;
72325;SDS011;60278;47.980;18.780;2022-10-17T17:17:10;29.67;;;14.83;;
72325;SDS011;60278;47.980;18.780;2022-10-17T17:20:42;26.15;;;15.65;;
72325;SDS011;60278;47.980;18.780;2022-10-17T17:24:13;27.15;;;16.55;;
72325;SDS011;60278;47.980;18.780;2022-10-17T17:27:44;22.10;;;12.43;;
72325;SDS011;60278;47.980;18.780;2022-10-17T17:31:25;20.10;;;10.40;;
72325;SDS011;60278;47.980;18.780;2022-10-17T17:34:58;20.25;;;10.55;;
72325;SDS011;60278;47.980;18.780;2022-10-17T17:38:30;24.05;;;9.85;;
72325;SDS011;60278;47.980;18.780;2022-10-17T17:42:02;14.20;;;9.10;;
72325;SDS011;60278;47.980;18.780;2022-10-17T17:45:34;18.52;;;10.23;;
72325;SDS011;60278;47.980;18.780;2022-10-17T17:49:05;18.20;;;10.85;;
72325;SDS011;60278;47.980;18.780;2022-10-17T17:52:36;15.77;;;8.10;;
72325;SDS011;60278;47.980;18.780;2022-10-17T17:56:17;22.10;;;10.02;;
72325;SDS011;60278;47.980;18.780;2022-10-17T17:59:50;24.80;;;12.80;;
72325;SDS011;60278;47.980;18.780;2022-10-17T18:03:22;23.27;;;15.32;;
72325;SDS011;60278;47.980;18.780;2022-10-17T18:06:53;18.47;;;11.47;;
72325;SDS011;60278;47.980;18.780;2022-10-17T18:10:26;23.58;;;12.82;;
72325;SDS011;60278;47.980;18.780;2022-10-17T18:13:58;24.58;;;13.32;;
72325;SDS011;60278;47.980;18.780;2022-10-17T18:17:31;19.57;;;12.00;;
72325;SDS011;60278;47.980;18.780;2022-10-17T18:21:02;24.35;;;11.75;;
72325;SDS011;60278;47.980;18.780;2022-10-17T18:24:33;17.55;;;10.38;;
72325;SDS011;60278;47.980;18.780;2022-10-17T18:28:04;19.43;;;10.97;;
72325;SDS011;60278;47.980;18.780;2022-10-17T18:31:35;16.55;;;9.30;;
72325;SDS011;60278;47.980;18.780;2022-10-17T18:35:06;23.67;;;9.65;;
72325;SDS011;60278;47.980;18.780;2022-10-17T18:38:38;12.50;;;7.95;;
72325;SDS011;60278;47.980;18.780;2022-10-17T18:42:09;12.40;;;7.47;;
72325;SDS011;60278;47.980;18.780;2022-10-17T18:45:41;23.40;;;11.60;;
72325;SDS011;60278;47.980;18.780;2022-10-17T18:49:13;21.27;;;11.77;;
72325;SDS011;60278;47.980;18.780;2022-10-17T18:52:45;21.50;;;12.37;;
72325;SDS011;60278;47.980;18.780;2022-10-17T18:56:17;21.23;;;13.05;;
72325;SDS011;60278;47.980;18.780;2022-10-17T18:59:49;22.92;;;11.60;;
72325;SDS011;60278;47.980;18.780;2022-10-17T19:03:20;20.33;;;11.33;;
72325;SDS011;60278;47.980;18.780;2022-10-17T19:06:51;23.55;;;10.93;;
72325;SDS011;60278;47.980;18.780;2022-10-17T19:10:22;18.60;;;10.77;;
72325;SDS011;60278;47.980;18.780;2022-10-17T19:13:55;23.23;;;12.43;;
72325;SDS011;60278;47.980;18.780;2022-10-17T19:17:28;35.63;;;15.90;;
72325;SDS011;60278;47.980;18.780;2022-10-17T19:21:06;28.20;;;12.90;;
72325;SDS011;60278;47.980;18.780;2022-10-17T19:24:38;17.60;;;8.60;;
72325;SDS011;60278;47.980;18.780;2022-10-17T19:28:09;15.53;;;7.50;;
72325;SDS011;60278;47.980;18.780;2022-10-17T19:31:40;12.05;;;7.00;;
72325;SDS011;60278;47.980;18.780;2022-10-17T19:35:11;12.93;;;7.38;;
72325;SDS011;60278;47.980;18.780;2022-10-17T19:38:42;12.80;;;7.90;;
72325;SDS011;60278;47.980;18.780;2022-10-17T19:42:13;17.67;;;8.10;;
72325;SDS011;60278;47.980;18.780;2022-10-17T19:45:57;16.00;;;8.90;;
72325;SDS011;60278;47.980;18.780;2022-10-17T19:49:29;15.98;;;8.60;;
72325;SDS011;60278;47.980;18.780;2022-10-17T19:53:00;17.43;;;8.73;;
72325;SDS011;60278;47.980;18.780;2022-10-17T19:56:32;12.13;;;7.63;;
72325;SDS011;60278;47.980;18.780;2022-10-17T20:00:07;14.93;;;8.63;;
72325;SDS011;60278;47.980;18.780;2022-10-17T20:03:42;14.87;;;7.80;;
72325;SDS011;60278;47.980;18.780;2022-10-17T20:07:13;15.57;;;8.63;;
72325;SDS011;60278;47.980;18.780;2022-10-17T20:10:44;13.13;;;8.05;;
72325;SDS011;60278;47.980;18.780;2022-10-17T20:14:16;14.97;;;9.60;;
72325;SDS011;60278;47.980;18.780;2022-10-17T20:17:47;16.52;;;9.25;;
72325;SDS011;60278;47.980;18.780;2022-10-17T20:21:19;15.38;;;9.40;;
72325;SDS011;60278;47.980;18.780;2022-10-17T20:24:53;15.40;;;8.70;;
72325;SDS011;60278;47.980;18.780;2022-10-17T20:28:24;17.47;;;9.07;;
72325;SDS011;60278;47.980;18.780;2022-10-17T20:31:56;20.05;;;9.57;;
72325;SDS011;60278;47.980;18.780;2022-10-17T20:35:27;17.73;;;9.10;;
72325;SDS011;60278;47.980;18.780;2022-10-17T20:38:58;17.43;;;8.27;;
72325;SDS011;60278;47.980;18.780;2022-10-17T20:42:29;17.80;;;9.35;;
72325;SDS011;60278;47.980;18.780;2022-10-17T20:46:00;16.83;;;8.73;;
72325;SDS011;60278;47.980;18.780;2022-10-17T20:49:31;15.50;;;10.00;;
72325;SDS011;60278;47.980;18.780;2022-10-17T20:53:03;19.92;;;9.93;;
72325;SDS011;60278;47.980;18.780;2022-10-17T20:56:35;16.80;;;9.38;;
72325;SDS011;60278;47.980;18.780;2022-10-17T21:00:07;26.48;;;9.85;;
72325;SDS011;60278;47.980;18.780;2022-10-17T21:03:39;18.20;;;9.97;;
72325;SDS011;60278;47.980;18.780;2022-10-17T21:07:10;19.50;;;10.13;;
72325;SDS011;60278;47.980;18.780;2022-10-17T21:10:41;18.23;;;10.73;;
72325;SDS011;60278;47.980;18.780;2022-10-17T21:14:12;18.40;;;9.60;;
72325;SDS011;60278;47.980;18.780;2022-10-17T21:17:46;17.63;;;9.98;;
72325;SDS011;60278;47.980;18.780;2022-10-17T21:21:20;17.67;;;9.05;;
72325;SDS011;60278;47.980;18.780;2022-10-17T21:24:58;22.87;;;10.23;;
72325;SDS011;60278;47.980;18.780;2022-10-17T21:28:29;22.45;;;10.52;;
72325;SDS011;60278;47.980;18.780;2022-10-17T21:32:00;18.60;;;9.95;;
72325;SDS011;60278;47.980;18.780;2022-10-17T21:35:31;23.27;;;13.07;;
72325;SDS011;60278;47.980;18.780;2022-10-17T21:39:02;22.03;;;11.43;;
72325;SDS011;60278;47.980;18.780;2022-10-17T21:42:34;30.63;;;12.63;;
72325;SDS011;60278;47.980;18.780;2022-10-17T21:46:06;28.77;;;11.45;;
72325;SDS011;60278;47.980;18.780;2022-10-17T21:49:40;20.97;;;10.00;;
72325;SDS011;60278;47.980;18.780;2022-10-17T21:53:11;16.20;;;10.00;;
72325;SDS011;60278;47.980;18.780;2022-10-17T21:56:42;14.68;;;9.30;;
72325;SDS011;60278;47.980;18.780;2022-10-17T22:00:14;23.03;;;12.37;;
72325;SDS011;60278;47.980;18.780;2022-10-17T22:03:46;17.08;;;9.57;;
72325;SDS011;60278;47.980;18.780;2022-10-17T22:07:19;20.30;;;11.18;;
72325;SDS011;60278;47.980;18.780;2022-10-17T22:10:50;17.83;;;10.77;;
72325;SDS011;60278;47.980;18.780;2022-10-17T22:14:21;19.63;;;9.83;;
72325;SDS011;60278;47.980;18.780;2022-10-17T22:17:54;18.02;;;10.13;;
72325;SDS011;60278;47.980;18.780;2022-10-17T22:21:26;16.70;;;9.68;;
72325;SDS011;60278;47.980;18.780;2022-10-17T22:24:57;17.20;;;9.37;;
72325;SDS011;60278;47.980;18.780;2022-10-17T22:28:28;17.92;;;9.32;;
72325;SDS011;60278;47.980;18.780;2022-10-17T22:31:59;18.58;;;10.27;;
72325;SDS011;60278;47.980;18.780;2022-10-17T22:35:30;21.07;;;10.63;;